Terminal Aerodrome Forecast
Issued by NWS Sterling, VA

Current Version | Previous Version | Graphics & Text | Print | Product List | Glossary On
Versions: 1 2 3 4 5 6 7 8 9 10 11 12 13 14 15 16 17 18 19 20 21 22
498
FTUS41 KLWX 121124
TAFIAD
TAF
KIAD 121124Z 1212/1318 19008KT P6SM OVC080
     FM121500 26010KT P6SM BKN120
     FM121800 30015G26KT P6SM BKN045
     FM122100 31015G31KT P6SM VCSH BKN045
     FM130600 29016G30KT P6SM BKN045
     FM131200 28014G23KT P6SM FEW080=

USA.gov is the U.S. government's official web portal to all federal, state and local government web resources and services.